sensor_id;sensor_type;location;lat;lon;timestamp;pressure;altitude;pressure_sealevel;temperature;humidity
9035;BME280;4552;43.422;24.592;2023-08-06T02:11:35;98522.44;;;21.05;94.12
9035;BME280;4552;43.422;24.592;2023-08-06T02:14:02;98523.16;;;21.07;93.75
9035;BME280;4552;43.422;24.592;2023-08-06T02:16:29;98527.75;;;21.05;94.09
9035;BME280;4552;43.422;24.592;2023-08-06T02:18:56;98539.25;;;21.05;94.69
9035;BME280;4552;43.422;24.592;2023-08-06T02:21:23;98544.72;;;21.04;94.56
9035;BME280;4552;43.422;24.592;2023-08-06T02:23:50;98546.53;;;21.14;94.71
9035;BME280;4552;43.422;24.592;2023-08-06T02:26:17;98545.44;;;21.28;94.14
9035;BME280;4552;43.422;24.592;2023-08-06T02:28:45;98551.97;;;21.35;93.82
9035;BME280;4552;43.422;24.592;2023-08-06T02:31:12;98546.78;;;21.22;93.65
9035;BME280;4552;43.422;24.592;2023-08-06T02:33:39;98554.25;;;21.17;94.38
9035;BME280;4552;43.422;24.592;2023-08-06T02:36:06;98549.81;;;21.29;93.87
9035;BME280;4552;43.422;24.592;2023-08-06T02:38:33;98542.06;;;21.26;94.07
9035;BME280;4552;43.422;24.592;2023-08-06T02:41:02;98547.13;;;21.07;94.67
9035;BME280;4552;43.422;24.592;2023-08-06T02:43:29;98550.16;;;21.13;95.32
9035;BME280;4552;43.422;24.592;2023-08-06T02:45:58;98536.97;;;21.01;95.73
9035;BME280;4552;43.422;24.592;2023-08-06T02:48:25;98531.91;;;21.20;95.29
9035;BME280;4552;43.422;24.592;2023-08-06T02:50:52;98523.78;;;21.21;94.92
9035;BME280;4552;43.422;24.592;2023-08-06T02:53:19;98537.56;;;21.26;94.86
9035;BME280;4552;43.422;24.592;2023-08-06T02:55:47;98538.66;;;21.35;94.30
9035;BME280;4552;43.422;24.592;2023-08-06T02:58:14;98563.34;;;21.26;94.41
9035;BME280;4552;43.422;24.592;2023-08-06T03:10:48;98557.75;;;20.96;97.15
9035;BME280;4552;43.422;24.592;2023-08-06T03:13:16;98561.47;;;20.93;97.90
9035;BME280;4552;43.422;24.592;2023-08-06T03:22:26;98563.63;;;20.88;99.52
9035;BME280;4552;43.422;24.592;2023-08-06T03:24:53;98570.22;;;20.95;99.85
9035;BME280;4552;43.422;24.592;2023-08-06T03:27:22;98559.78;;;20.92;99.80
9035;BME280;4552;43.422;24.592;2023-08-06T03:29:49;98535.72;;;20.94;100.00
9035;BME280;4552;43.422;24.592;2023-08-06T03:32:16;98530.53;;;21.03;99.55
9035;BME280;4552;43.422;24.592;2023-08-06T03:34:43;98539.63;;;21.12;99.89
9035;BME280;4552;43.422;24.592;2023-08-06T03:37:10;98544.00;;;21.24;99.21
9035;BME280;4552;43.422;24.592;2023-08-06T03:39:37;98554.41;;;21.27;99.40
9035;BME280;4552;43.422;24.592;2023-08-06T03:42:05;98557.41;;;21.22;99.96
9035;BME280;4552;43.422;24.592;2023-08-06T03:44:33;98561.63;;;21.14;100.00
9035;BME280;4552;43.422;24.592;2023-08-06T03:47:00;98566.50;;;21.09;100.00
9035;BME280;4552;43.422;24.592;2023-08-06T03:49:27;98572.06;;;21.06;100.00
9035;BME280;4552;43.422;24.592;2023-08-06T03:51:54;98607.13;;;21.11;100.00
9035;BME280;4552;43.422;24.592;2023-08-06T03:54:21;98627.25;;;21.26;100.00
9035;BME280;4552;43.422;24.592;2023-08-06T03:56:48;98619.50;;;21.23;100.00
9035;BME280;4552;43.422;24.592;2023-08-06T03:59:15;98612.22;;;21.25;100.00
9035;BME280;4552;43.422;24.592;2023-08-06T04:11:49;98601.09;;;21.53;100.00
9035;BME280;4552;43.422;24.592;2023-08-06T04:14:16;98571.81;;;21.53;100.00
9035;BME280;4552;43.422;24.592;2023-08-06T04:16:42;98565.75;;;21.51;100.00
9035;BME280;4552;43.422;24.592;2023-08-06T04:19:09;98569.41;;;21.50;100.00
9035;BME280;4552;43.422;24.592;2023-08-06T04:21:36;98573.00;;;21.49;100.00
9035;BME280;4552;43.422;24.592;2023-08-06T04:24:03;98570.59;;;21.46;100.00
9035;BME280;4552;43.422;24.592;2023-08-06T04:26:30;98579.06;;;21.51;100.00
9035;BME280;4552;43.422;24.592;2023-08-06T04:28:59;98569.25;;;21.29;100.00
9035;BME280;4552;43.422;24.592;2023-08-06T04:31:25;98580.75;;;21.19;100.00
9035;BME280;4552;43.422;24.592;2023-08-06T04:36:34;98582.94;;;21.03;100.00
9035;BME280;4552;43.422;24.592;2023-08-06T04:39:01;98577.13;;;21.09;100.00
9035;BME280;4552;43.422;24.592;2023-08-06T04:41:28;98574.59;;;21.07;100.00
9035;BME280;4552;43.422;24.592;2023-08-06T04:43:56;98581.78;;;20.94;100.00
9035;BME280;4552;43.422;24.592;2023-08-06T04:46:25;98592.34;;;20.96;100.00
9035;BME280;4552;43.422;24.592;2023-08-06T04:49:00;98569.38;;;21.17;100.00
9035;BME280;4552;43.422;24.592;2023-08-06T04:51:44;98554.97;;;21.08;100.00
9035;BME280;4552;43.422;24.592;2023-08-06T04:54:11;98567.69;;;21.16;100.00
9035;BME280;4552;43.422;24.592;2023-08-06T04:56:38;98571.94;;;21.29;100.00
9035;BME280;4552;43.422;24.592;2023-08-06T04:59:05;98580.63;;;21.20;100.00
9035;BME280;4552;43.422;24.592;2023-08-06T05:01:34;98583.66;;;21.49;100.00
9035;BME280;4552;43.422;24.592;2023-08-06T05:04:01;98587.41;;;21.68;100.00
9035;BME280;4552;43.422;24.592;2023-08-06T05:06:28;98567.28;;;21.97;100.00
9035;BME280;4552;43.422;24.592;2023-08-06T05:08:55;98571.44;;;22.22;100.00
9035;BME280;4552;43.422;24.592;2023-08-06T05:11:21;98555.09;;;23.09;99.81
9035;BME280;4552;43.422;24.592;2023-08-06T05:13:49;98557.47;;;23.02;95.96
9035;BME280;4552;43.422;24.592;2023-08-06T05:40:10;98544.91;;;22.20;100.00
9035;BME280;4552;43.422;24.592;2023-08-06T05:42:38;98544.28;;;22.28;100.00
9035;BME280;4552;43.422;24.592;2023-08-06T05:45:06;98558.41;;;22.40;100.00
9035;BME280;4552;43.422;24.592;2023-08-06T05:50:55;98552.41;;;22.58;100.00
9035;BME280;4552;43.422;24.592;2023-08-06T05:53:22;98560.84;;;23.04;98.48
9035;BME280;4552;43.422;24.592;2023-08-06T05:55:51;98565.31;;;23.54;95.24
9035;BME280;4552;43.422;24.592;2023-08-06T05:58:17;98574.59;;;23.50;93.28
9035;BME280;4552;43.422;24.592;2023-08-06T06:00:51;98569.81;;;23.54;95.01
9035;BME280;4552;43.422;24.592;2023-08-06T06:03:18;98572.53;;;23.63;93.83
9035;BME280;4552;43.422;24.592;2023-08-06T06:05:45;98564.84;;;23.89;92.10
9035;BME280;4552;43.422;24.592;2023-08-06T06:08:12;98576.22;;;24.31;88.97
9035;BME280;4552;43.422;24.592;2023-08-06T06:10:39;98571.25;;;24.93;83.96
9035;BME280;4552;43.422;24.592;2023-08-06T06:13:07;98563.78;;;25.06;81.79
9035;BME280;4552;43.422;24.592;2023-08-06T06:15:34;98542.97;;;24.81;83.14
9035;BME280;4552;43.422;24.592;2023-08-06T06:18:01;98537.09;;;24.68;83.00
9035;BME280;4552;43.422;24.592;2023-08-06T06:20:28;98533.69;;;24.66;82.26
9035;BME280;4552;43.422;24.592;2023-08-06T06:22:58;98535.94;;;24.32;83.80
9035;BME280;4552;43.422;24.592;2023-08-06T06:25:25;98509.06;;;24.05;85.63
9035;BME280;4552;43.422;24.592;2023-08-06T06:27:51;98519.88;;;24.04;85.64
9035;BME280;4552;43.422;24.592;2023-08-06T06:30:20;98538.84;;;23.91;86.29
9035;BME280;4552;43.422;24.592;2023-08-06T06:36:08;98527.91;;;22.94;92.71
9035;BME280;4552;43.422;24.592;2023-08-06T06:38:36;98534.56;;;22.79;94.63
9035;BME280;4552;43.422;24.592;2023-08-06T06:41:03;98522.94;;;22.60;96.91
9035;BME280;4552;43.422;24.592;2023-08-06T06:43:30;98497.72;;;22.73;97.85
9035;BME280;4552;43.422;24.592;2023-08-06T06:45:58;98484.94;;;22.97;96.40
9035;BME280;4552;43.422;24.592;2023-08-06T06:49:00;98480.38;;;23.48;93.68
9035;BME280;4552;43.422;24.592;2023-08-06T06:51:27;98483.78;;;23.69;91.93
9035;BME280;4552;43.422;24.592;2023-08-06T06:53:54;98490.00;;;23.79;91.17
9035;BME280;4552;43.422;24.592;2023-08-06T06:56:21;98553.44;;;23.17;93.99
9035;BME280;4552;43.422;24.592;2023-08-06T06:58:49;98653.91;;;22.77;97.55
9035;BME280;4552;43.422;24.592;2023-08-06T07:01:18;98690.09;;;22.70;98.60
9035;BME280;4552;43.422;24.592;2023-08-06T07:03:44;98689.03;;;22.08;100.00
9035;BME280;4552;43.422;24.592;2023-08-06T07:06:11;98647.94;;;21.55;100.00
9035;BME280;4552;43.422;24.592;2023-08-06T07:08:38;98622.63;;;21.06;100.00
9035;BME280;4552;43.422;24.592;2023-08-06T07:11:07;98568.81;;;20.79;100.00
9035;BME280;4552;43.422;24.592;2023-08-06T07:13:38;98556.47;;;20.78;100.00
9035;BME280;4552;43.422;24.592;2023-08-06T07:16:05;98552.94;;;20.55;100.00
9035;BME280;4552;43.422;24.592;2023-08-06T07:18:36;98565.03;;;20.59;100.00
9035;BME280;4552;43.422;24.592;2023-08-06T07:21:03;98579.72;;;20.41;100.00
9035;BME280;4552;43.422;24.592;2023-08-06T07:23:32;98581.94;;;20.23;100.00
9035;BME280;4552;43.422;24.592;2023-08-06T07:25:59;98584.91;;;20.19;100.00
9035;BME280;4552;43.422;24.592;2023-08-06T07:28:26;98596.94;;;20.12;100.00
9035;BME280;4552;43.422;24.592;2023-08-06T07:30:53;98603.59;;;19.94;100.00
9035;BME280;4552;43.422;24.592;2023-08-06T07:33:22;98596.75;;;19.79;100.00
9035;BME280;4552;43.422;24.592;2023-08-06T07:35:54;98587.84;;;19.67;100.00
9035;BME280;4552;43.422;24.592;2023-08-06T07:38:24;98614.84;;;19.61;100.00
9035;BME280;4552;43.422;24.592;2023-08-06T07:41:06;98623.78;;;19.60;100.00
9035;BME280;4552;43.422;24.592;2023-08-06T07:43:34;98648.19;;;19.65;100.00
9035;BME280;4552;43.422;24.592;2023-08-06T07:46:04;98647.78;;;19.59;100.00
9035;BME280;4552;43.422;24.592;2023-08-06T07:48:33;98644.03;;;19.74;100.00
9035;BME280;4552;43.422;24.592;2023-08-06T08:28:03;98698.25;;;20.67;100.00
9035;BME280;4552;43.422;24.592;2023-08-06T08:30:40;98701.09;;;20.53;100.00
9035;BME280;4552;43.422;24.592;2023-08-06T08:33:07;98705.19;;;20.46;100.00
9035;BME280;4552;43.422;24.592;2023-08-06T08:35:34;98700.22;;;20.29;100.00
9035;BME280;4552;43.422;24.592;2023-08-06T08:38:02;98709.06;;;20.29;100.00
9035;BME280;4552;43.422;24.592;2023-08-06T08:40:31;98682.94;;;20.23;100.00
9035;BME280;4552;43.422;24.592;2023-08-06T08:42:59;98699.00;;;20.45;100.00
9035;BME280;4552;43.422;24.592;2023-08-06T08:45:29;98698.72;;;20.61;100.00
9035;BME280;4552;43.422;24.592;2023-08-06T08:54:40;98700.69;;;20.46;100.00
9035;BME280;4552;43.422;24.592;2023-08-06T08:57:09;98684.34;;;20.40;100.00
9035;BME280;4552;43.422;24.592;2023-08-06T08:59:39;98680.91;;;20.50;100.00
9035;BME280;4552;43.422;24.592;2023-08-06T09:22:22;98714.88;;;20.82;100.00
9035;BME280;4552;43.422;24.592;2023-08-06T09:24:49;98684.06;;;20.79;100.00
9035;BME280;4552;43.422;24.592;2023-08-06T09:27:18;98688.31;;;20.93;100.00
9035;BME280;4552;43.422;24.592;2023-08-06T09:29:46;98674.00;;;20.72;100.00
9035;BME280;4552;43.422;24.592;2023-08-06T09:32:14;98691.84;;;20.58;100.00
9035;BME280;4552;43.422;24.592;2023-08-06T09:34:45;98696.88;;;20.50;100.00
9035;BME280;4552;43.422;24.592;2023-08-06T09:37:16;98696.81;;;20.63;100.00
9035;BME280;4552;43.422;24.592;2023-08-06T09:39:45;98713.94;;;20.83;100.00
9035;BME280;4552;43.422;24.592;2023-08-06T09:42:15;98704.00;;;20.74;100.00
9035;BME280;4552;43.422;24.592;2023-08-06T09:44:43;98693.06;;;20.66;100.00
9035;BME280;4552;43.422;24.592;2023-08-06T10:44:24;98640.91;;;22.63;100.00
9035;BME280;4552;43.422;24.592;2023-08-06T10:46:51;98648.19;;;22.61;100.00
9035;BME280;4552;43.422;24.592;2023-08-06T11:02:48;98626.53;;;23.16;100.00
9035;BME280;4552;43.422;24.592;2023-08-06T11:05:16;98624.38;;;23.51;100.00
9035;BME280;4552;43.422;24.592;2023-08-06T11:07:43;98629.38;;;23.65;100.00
9035;BME280;4552;43.422;24.592;2023-08-06T11:10:11;98637.44;;;23.84;100.00
9035;BME280;4552;43.422;24.592;2023-08-06T11:12:39;98633.53;;;23.88;100.00
9035;BME280;4552;43.422;24.592;2023-08-06T11:15:07;98635.31;;;23.78;100.00
9035;BME280;4552;43.422;24.592;2023-08-06T12:45:52;98636.28;;;26.41;75.41
9035;BME280;4552;43.422;24.592;2023-08-06T12:48:22;98627.31;;;26.50;75.58
9035;BME280;4552;43.422;24.592;2023-08-06T12:50:49;98626.84;;;26.82;74.24
9035;BME280;4552;43.422;24.592;2023-08-06T12:53:16;98624.03;;;26.91;73.06
9035;BME280;4552;43.422;24.592;2023-08-06T12:55:43;98618.22;;;26.96;73.54
9035;BME280;4552;43.422;24.592;2023-08-06T12:58:12;98605.06;;;27.10;73.97
9035;BME280;4552;43.422;24.592;2023-08-06T13:00:39;98610.66;;;27.17;71.56
9035;BME280;4552;43.422;24.592;2023-08-06T13:03:07;98605.13;;;27.19;72.08
9035;BME280;4552;43.422;24.592;2023-08-06T13:05:34;98598.91;;;27.44;74.88
9035;BME280;4552;43.422;24.592;2023-08-06T13:08:01;98605.69;;;27.48;71.67
9035;BME280;4552;43.422;24.592;2023-08-06T13:10:28;98600.88;;;27.34;69.71
9035;BME280;4552;43.422;24.592;2023-08-06T13:12:56;98608.31;;;27.40;69.26
9035;BME280;4552;43.422;24.592;2023-08-06T13:15:23;98599.28;;;27.23;66.86
9035;BME280;4552;43.422;24.592;2023-08-06T13:17:50;98592.19;;;27.40;65.89
9035;BME280;4552;43.422;24.592;2023-08-06T13:20:19;98589.34;;;27.41;66.17
9035;BME280;4552;43.422;24.592;2023-08-06T13:22:46;98591.06;;;27.50;67.10
9035;BME280;4552;43.422;24.592;2023-08-06T13:25:15;98602.03;;;27.57;67.99
9035;BME280;4552;43.422;24.592;2023-08-06T13:27:42;98598.38;;;27.66;65.97
9035;BME280;4552;43.422;24.592;2023-08-06T13:30:11;98586.22;;;27.54;64.52
9035;BME280;4552;43.422;24.592;2023-08-06T13:32:39;98579.13;;;27.53;64.72
9035;BME280;4552;43.422;24.592;2023-08-06T13:35:07;98580.06;;;27.36;64.59
9035;BME280;4552;43.422;24.592;2023-08-06T13:37:35;98594.13;;;27.55;65.99
9035;BME280;4552;43.422;24.592;2023-08-06T13:40:02;98594.16;;;27.38;65.73
9035;BME280;4552;43.422;24.592;2023-08-06T13:42:30;98584.66;;;27.43;67.60
9035;BME280;4552;43.422;24.592;2023-08-06T13:44:57;98593.19;;;27.72;66.12
9035;BME280;4552;43.422;24.592;2023-08-06T15:14:46;98595.91;;;27.80;49.94
9035;BME280;4552;43.422;24.592;2023-08-06T15:17:23;98594.56;;;27.76;49.58
9035;BME280;4552;43.422;24.592;2023-08-06T15:53:30;98595.28;;;26.66;59.44
9035;BME280;4552;43.422;24.592;2023-08-06T15:55:57;98598.28;;;26.63;60.07
9035;BME280;4552;43.422;24.592;2023-08-06T15:58:24;98600.97;;;26.63;60.71
9035;BME280;4552;43.422;24.592;2023-08-06T16:00:51;98609.59;;;26.67;61.18
9035;BME280;4552;43.422;24.592;2023-08-06T16:03:26;98602.44;;;26.75;60.87
9035;BME280;4552;43.422;24.592;2023-08-06T16:06:04;98609.06;;;26.54;61.67
9035;BME280;4552;43.422;24.592;2023-08-06T16:08:34;98609.84;;;26.46;61.01
9035;BME280;4552;43.422;24.592;2023-08-06T16:11:01;98614.38;;;26.81;61.65
9035;BME280;4552;43.422;24.592;2023-08-06T16:13:30;98625.44;;;26.95;59.76
9035;BME280;4552;43.422;24.592;2023-08-06T16:15:57;98610.09;;;26.70;61.59
9035;BME280;4552;43.422;24.592;2023-08-06T17:02:09;98659.84;;;26.74;63.44
9035;BME280;4552;43.422;24.592;2023-08-06T17:04:36;98662.75;;;26.63;63.96
9035;BME280;4552;43.422;24.592;2023-08-06T17:07:04;98662.00;;;26.61;64.40
9035;BME280;4552;43.422;24.592;2023-08-06T17:09:31;98656.38;;;26.55;64.34
9035;BME280;4552;43.422;24.592;2023-08-06T17:11:58;98669.91;;;26.45;65.87
9035;BME280;4552;43.422;24.592;2023-08-06T17:14:25;98661.84;;;26.45;66.91
9035;BME280;4552;43.422;24.592;2023-08-06T17:16:51;98664.13;;;26.40;67.31
9035;BME280;4552;43.422;24.592;2023-08-06T18:56:55;98859.72;;;23.59;76.48
9035;BME280;4552;43.422;24.592;2023-08-06T18:59:25;98859.25;;;23.12;80.85
9035;BME280;4552;43.422;24.592;2023-08-06T19:01:53;98855.28;;;22.84;85.19
9035;BME280;4552;43.422;24.592;2023-08-06T19:24:44;98874.09;;;21.58;100.00
9035;BME280;4552;43.422;24.592;2023-08-06T19:27:11;98867.47;;;21.64;100.00
9035;BME280;4552;43.422;24.592;2023-08-06T19:29:38;98871.84;;;21.65;100.00
9035;BME280;4552;43.422;24.592;2023-08-06T19:32:06;98877.09;;;21.54;100.00
9035;BME280;4552;43.422;24.592;2023-08-06T20:29:23;98960.19;;;20.99;100.00
9035;BME280;4552;43.422;24.592;2023-08-06T20:31:50;98963.03;;;21.09;100.00
9035;BME280;4552;43.422;24.592;2023-08-06T20:34:20;98967.41;;;20.97;100.00
9035;BME280;4552;43.422;24.592;2023-08-06T20:36:47;98967.59;;;21.07;100.00
9035;BME280;4552;43.422;24.592;2023-08-06T20:39:13;98966.31;;;21.12;100.00
9035;BME280;4552;43.422;24.592;2023-08-06T20:41:54;98974.00;;;21.04;100.00
9035;BME280;4552;43.422;24.592;2023-08-06T20:44:24;98970.81;;;20.99;100.00
9035;BME280;4552;43.422;24.592;2023-08-06T20:46:52;98982.09;;;21.03;100.00
9035;BME280;4552;43.422;24.592;2023-08-06T21:12:47;99032.63;;;20.78;100.00
9035;BME280;4552;43.422;24.592;2023-08-06T21:15:14;99031.59;;;20.68;100.00
9035;BME280;4552;43.422;24.592;2023-08-06T21:17:40;99040.19;;;20.71;100.00
9035;BME280;4552;43.422;24.592;2023-08-06T21:20:08;99045.28;;;20.74;100.00
9035;BME280;4552;43.422;24.592;2023-08-06T21:22:35;99041.25;;;20.69;100.00
9035;BME280;4552;43.422;24.592;2023-08-06T21:25:03;99054.34;;;20.72;100.00
9035;BME280;4552;43.422;24.592;2023-08-06T21:27:30;99049.34;;;20.80;100.00
9035;BME280;4552;43.422;24.592;2023-08-06T21:29:58;99055.72;;;20.77;100.00
9035;BME280;4552;43.422;24.592;2023-08-06T21:32:25;99056.53;;;20.52;100.00
9035;BME280;4552;43.422;24.592;2023-08-06T21:38:14;99054.22;;;20.35;100.00
9035;BME280;4552;43.422;24.592;2023-08-06T21:40:41;99049.09;;;20.32;100.00
9035;BME280;4552;43.422;24.592;2023-08-06T21:43:08;99058.13;;;20.42;100.00
9035;BME280;4552;43.422;24.592;2023-08-06T21:45:37;99063.78;;;20.38;100.00
9035;BME280;4552;43.422;24.592;2023-08-06T21:48:04;99061.00;;;20.39;100.00
9035;BME280;4552;43.422;24.592;2023-08-06T21:50:32;99064.28;;;20.30;100.00
9035;BME280;4552;43.422;24.592;2023-08-06T21:52:59;99070.56;;;20.29;100.00
9035;BME280;4552;43.422;24.592;2023-08-06T21:55:29;99083.31;;;20.24;100.00
9035;BME280;4552;43.422;24.592;2023-08-06T21:57:56;99079.06;;;20.22;100.00
9035;BME280;4552;43.422;24.592;2023-08-06T22:00:23;99080.66;;;20.10;100.00
9035;BME280;4552;43.422;24.592;2023-08-06T22:02:52;99074.50;;;20.10;100.00
9035;BME280;4552;43.422;24.592;2023-08-06T23:46:08;99159.91;;;19.63;100.00
9035;BME280;4552;43.422;24.592;2023-08-06T23:48:35;99154.97;;;19.71;100.00
